Time;durP1;ratioP1;P1;durP2;ratioP2;P2;SDS_P1;SDS_P2;PMS_P1;PMS_P2;Temp;Humidity;BMP_temperature;BMP_pressure;BME280_temperature;BME280_humidity;BME280_pressure;Samples;Min_cycle;Max_cycle;Signal;HPM_P1;HPM_P2
2021/12/29 00:02:24;;;;;;;;;7.00;4.67;;;;;12.42;60.95;100281.03;4976139;28;45563;-68
2021/12/29 00:04:50;;;;;;;;;7.00;6.00;;;;;12.79;61.41;100352.50;4976626;28;45615;-68
2021/12/29 00:07:15;;;;;;;;;9.33;5.33;;;;;12.73;61.16;100343.34;4978362;28;45479;-65
2021/12/29 00:09:40;;;;;;;;;9.33;8.33;;;;;12.87;61.50;100360.50;4979522;28;45422;-67
2021/12/29 00:12:08;;;;;;;;;6.00;5.00;;;;;12.80;61.44;100359.50;4979742;28;45428;-67
2021/12/29 00:14:35;;;;;;;;;11.67;6.33;;;;;12.75;61.38;100352.00;4979836;28;45312;-68
2021/12/29 00:17:04;;;;;;;;;8.67;7.00;;;;;12.86;61.67;100384.69;4979999;28;45330;-68
2021/12/29 00:19:30;;;;;;;;;7.33;7.33;;;;;12.75;61.62;100367.16;4995309;28;46685;-67
2021/12/29 00:21:55;;;;;;;;;8.33;5.67;;;;;12.79;61.73;100355.16;4979579;28;45335;-68
2021/12/29 00:24:21;;;;;;;;;6.33;5.00;;;;;12.89;61.57;100390.53;4979444;28;45395;-68
2021/12/29 00:26:46;;;;;;;;;8.00;6.00;;;;;12.91;61.69;100417.88;4979768;28;45468;-67
2021/12/29 00:29:12;;;;;;;;;5.67;4.67;;;;;12.92;62.04;100416.03;4979202;28;45706;-67
2021/12/29 00:31:37;;;;;;;;;9.00;6.67;;;;;12.83;62.08;100407.22;4979445;28;45515;-67
2021/12/29 00:34:03;;;;;;;;;6.00;4.67;;;;;12.85;62.21;100421.22;4977964;28;45368;-68
2021/12/29 00:36:28;;;;;;;;;7.00;6.00;;;;;12.91;62.05;100422.38;4979823;28;45520;-68
2021/12/29 00:38:54;;;;;;;;;6.33;4.67;;;;;12.95;62.31;100426.38;4994274;28;47951;-67
2021/12/29 00:41:20;;;;;;;;;8.00;5.00;;;;;12.91;62.42;100425.03;4978166;28;45406;-68
2021/12/29 00:43:46;;;;;;;;;6.67;5.33;;;;;12.90;62.85;100429.53;4994376;28;45470;-68
2021/12/29 00:46:14;;;;;;;;;8.00;7.00;;;;;12.93;62.77;100444.38;4979705;28;45242;-67
2021/12/29 00:48:43;;;;;;;;;10.00;7.33;;;;;13.00;62.63;100445.38;4978952;28;46523;-68
2021/12/29 00:51:10;;;;;;;;;7.00;5.67;;;;;12.92;62.93;100432.88;4979165;28;45550;-68
2021/12/29 00:53:36;;;;;;;;;9.00;4.33;;;;;12.20;62.94;100314.47;4979372;28;45429;-68
2021/12/29 00:56:01;;;;;;;;;7.67;6.00;;;;;12.99;63.21;100446.38;4979314;28;45194;-67
2021/12/29 00:58:28;;;;;;;;;7.33;6.33;;;;;13.01;63.32;100447.91;4977598;28;47371;-68
2021/12/29 01:00:53;;;;;;;;;10.00;8.67;;;;;13.00;63.33;100443.53;4979189;28;45404;-68
2021/12/29 01:03:22;;;;;;;;;14.33;7.00;;;;;13.03;62.93;100445.91;4979059;28;45556;-68
2021/12/29 01:05:50;;;;;;;;;11.00;6.00;;;;;12.96;63.19;100420.84;4981912;28;45631;-68
2021/12/29 01:08:16;;;;;;;;;16.33;11.00;;;;;12.97;63.27;100448.38;4993846;28;46527;-66
2021/12/29 01:10:42;;;;;;;;;12.00;8.33;;;;;12.97;63.32;100449.22;4979019;28;45262;-67
2021/12/29 01:13:10;;;;;;;;;13.67;6.00;;;;;12.89;63.51;100435.03;4978989;28;45302;-68
2021/12/29 01:15:58;;;;;;;;;9.33;8.00;;;;;12.93;63.57;100439.88;4979080;28;45607;-67
2021/12/29 01:18:25;;;;;;;;;6.33;3.33;;;;;12.89;63.63;100448.38;4977600;28;45638;-68
2021/12/29 01:20:51;;;;;;;;;6.33;5.33;;;;;12.97;63.69;100446.53;4977490;28;45694;-69
2021/12/29 01:23:16;;;;;;;;;13.00;7.00;;;;;12.88;63.77;100446.72;4993738;28;45227;-68
2021/12/29 01:25:41;;;;;;;;;8.33;7.33;;;;;12.92;64.05;100453.38;4978957;28;45675;-68
2021/12/29 01:28:07;;;;;;;;;9.67;6.00;;;;;12.85;63.71;100447.06;4977104;28;46849;-68
2021/12/29 01:30:33;;;;;;;;;6.00;4.67;;;;;12.44;63.90;100383.00;4978447;28;45239;-68
2021/12/29 01:33:00;;;;;;;;;7.00;4.33;;;;;12.82;63.93;100442.06;4996326;28;45541;-68
2021/12/29 01:35:25;;;;;;;;;8.33;7.00;;;;;12.92;63.75;100454.22;4998129;28;45321;-68
2021/12/29 01:37:51;;;;;;;;;9.00;6.00;;;;;12.94;63.90;100454.03;4996291;28;48536;-69
2021/12/29 01:40:18;;;;;;;;;7.33;5.33;;;;;12.92;64.06;100451.53;4997937;28;45379;-67
2021/12/29 01:42:44;;;;;;;;;6.67;6.00;;;;;12.95;63.87;100439.69;4998300;28;45470;-68
2021/12/29 01:45:12;;;;;;;;;10.67;6.00;;;;;12.99;64.10;100460.53;4998319;28;45340;-69
2021/12/29 01:47:38;;;;;;;;;13.33;7.00;;;;;12.93;64.62;100442.53;5012936;28;48773;-67
2021/12/29 01:50:05;;;;;;;;;11.00;7.33;;;;;12.91;64.22;100449.06;4997745;28;45409;-68
2021/12/29 01:52:36;;;;;;;;;6.67;5.67;;;;;12.91;64.10;100444.53;4997920;28;45291;-69
2021/12/29 01:55:05;;;;;;;;;10.33;9.00;;;;;12.57;64.02;100386.00;4998299;28;45279;-69
2021/12/29 01:57:30;;;;;;;;;10.67;6.33;;;;;12.55;64.50;100392.50;4996133;28;48519;-68
2021/12/29 01:59:55;;;;;;;;;9.67;6.67;;;;;12.72;64.11;100416.34;4997600;28;45368;-69
2021/12/29 02:02:21;;;;;;;;;10.00;7.67;;;;;12.87;64.33;100456.56;4996216;28;45899;-73
2021/12/29 02:04:48;;;;;;;;;8.67;7.00;;;;;12.89;64.51;100462.56;4997284;28;45424;-69
2021/12/29 02:07:13;;;;;;;;;6.67;4.33;;;;;12.79;64.23;100453.88;4997444;28;46534;-68
2021/12/29 02:09:40;;;;;;;;;6.33;5.00;;;;;12.87;64.25;100472.56;4996308;28;45383;-68
2021/12/29 02:12:05;;;;;;;;;9.33;5.67;;;;;12.95;64.40;100487.72;4997701;28;45315;-67
2021/12/29 02:14:32;;;;;;;;;7.67;6.67;;;;;12.94;64.75;100470.88;4997776;28;45545;-68
2021/12/29 02:16:58;;;;;;;;;6.67;5.33;;;;;12.93;64.47;100479.91;4997259;28;45514;-68
2021/12/29 02:19:25;;;;;;;;;9.67;6.00;;;;;12.81;64.63;100454.53;4997562;28;45361;-68
2021/12/29 02:22:07;;;;;;;;;10.00;6.67;;;;;12.82;64.84;100464.22;4997582;28;45444;-68
2021/12/29 02:24:41;;;;;;;;;10.00;6.00;;;;;12.87;64.72;100472.56;4997605;28;45303;-69
2021/12/29 02:27:10;;;;;;;;;5.67;5.67;;;;;12.75;65.42;100463.19;4997363;28;45698;-67
2021/12/29 02:29:38;;;;;;;;;10.67;6.00;;;;;12.85;65.09;100463.91;4996844;28;45431;-67
2021/12/29 02:32:04;;;;;;;;;6.33;5.67;;;;;12.77;64.92;100455.88;4997303;28;45337;-69
2021/12/29 02:34:30;;;;;;;;;8.33;6.33;;;;;12.89;64.96;100470.56;4996774;28;45572;-68
2021/12/29 02:36:59;;;;;;;;;4.33;4.33;;;;;12.91;65.47;100484.56;4995823;28;47931;-69
2021/12/29 02:39:25;;;;;;;;;4.33;4.33;;;;;12.86;65.53;100478.91;4997089;28;45475;-67
2021/12/29 02:41:54;;;;;;;;;8.00;6.00;;;;;12.84;65.50;100464.06;4997358;28;45471;-68
2021/12/29 02:44:24;;;;;;;;;6.67;5.33;;;;;12.90;65.16;100476.72;4997383;28;45256;-67
2021/12/29 02:46:51;;;;;;;;;4.67;4.67;;;;;12.89;65.19;100465.22;4996702;28;45722;-68
2021/12/29 02:49:17;;;;;;;;;6.67;5.67;;;;;12.86;64.89;100449.56;4994729;28;45548;-68
2021/12/29 02:51:42;;;;;;;;;7.67;6.67;;;;;12.91;64.98;100457.88;4996535;28;45880;-69
2021/12/29 02:54:08;;;;;;;;;7.00;5.67;;;;;12.97;65.07;100465.22;4997229;28;45298;-69
2021/12/29 02:56:34;;;;;;;;;11.33;6.33;;;;;12.98;64.57;100463.38;4995600;28;47980;-68
2021/12/29 02:59:00;;;;;;;;;13.33;6.67;;;;;12.91;64.96;100447.22;4996934;28;45254;-68
2021/12/29 03:01:27;;;;;;;;;5.67;5.00;;;;;13.00;64.84;100458.72;4992161;28;45235;-68
2021/12/29 03:03:54;;;;;;;;;5.67;4.33;;;;;13.03;64.86;100472.59;4975972;28;45545;-67
2021/12/29 03:06:20;;;;;;;;;5.33;4.33;;;;;12.94;64.57;100452.22;4976963;28;46682;-69
2021/12/29 03:08:46;;;;;;;;;8.00;4.00;;;;;13.02;65.02;100467.41;4977110;28;45330;-66
2021/12/29 03:11:11;;;;;;;;;11.00;8.67;;;;;13.05;65.08;100464.41;4976988;28;45271;-68
2021/12/29 03:13:39;;;;;;;;;10.00;6.33;;;;;13.06;64.65;100466.91;4977562;28;45462;-68
2021/12/29 03:16:05;;;;;;;;;9.00;6.67;;;;;12.82;64.69;100432.22;4976869;28;47836;-68
2021/12/29 03:18:31;;;;;;;;;4.33;2.33;;;;;13.05;64.79;100465.25;4976856;28;45258;-68
2021/12/29 03:20:56;;;;;;;;;8.67;8.67;;;;;13.09;64.91;100463.91;4977219;28;45190;-67
2021/12/29 03:23:22;;;;;;;;;7.00;6.00;;;;;12.76;64.96;100403.50;4977239;28;45518;-68
2021/12/29 03:25:48;;;;;;;;;6.00;4.67;;;;;13.04;65.50;100452.06;4976940;28;45592;-67
2021/12/29 03:28:20;;;;;;;;;10.00;5.67;;;;;12.99;65.64;100447.19;4975495;28;45300;-68
2021/12/29 03:30:48;;;;;;;;;7.33;3.67;;;;;13.09;65.88;100473.75;4977559;28;45336;-68
2021/12/29 03:33:14;;;;;;;;;7.00;5.67;;;;;12.70;65.63;100407.69;4977253;28;45549;-68
2021/12/29 03:35:43;;;;;;;;;5.00;4.00;;;;;12.65;65.13;100403.84;4976758;28;46503;-67
2021/12/29 03:38:16;;;;;;;;;8.67;5.67;;;;;12.54;65.90;100390.84;4976807;28;45317;-68
2021/12/29 03:40:42;;;;;;;;;7.00;4.00;;;;;13.09;65.77;100468.41;4975799;28;45543;-69
2021/12/29 03:43:09;;;;;;;;;7.00;3.67;;;;;13.09;66.01;100469.22;4978874;28;45571;-67
2021/12/29 03:45:39;;;;;;;;;4.33;4.33;;;;;12.35;66.27;100338.66;4995229;28;48775;-68
2021/12/29 03:48:06;;;;;;;;;3.00;3.00;;;;;12.96;65.87;100450.22;4980026;28;45386;-67
2021/12/29 03:50:31;;;;;;;;;2.67;2.67;;;;;12.80;66.29;100424.34;4980294;28;45420;-67
2021/12/29 03:52:57;;;;;;;;;7.33;5.00;;;;;13.06;65.90;100466.06;4980396;28;45345;-67
2021/12/29 03:55:23;;;;;;;;;8.00;5.33;;;;;13.00;66.08;100450.72;4980168;28;45445;-67
2021/12/29 03:57:48;;;;;;;;;7.00;5.33;;;;;12.99;66.20;100452.53;4980178;28;45339;-67
2021/12/29 04:00:16;;;;;;;;;9.33;4.33;;;;;13.07;66.21;100459.72;4984317;28;45516;-69
2021/12/29 04:02:43;;;;;;;;;7.33;5.67;;;;;13.06;66.05;100450.88;4999885;28;45192;-68
2021/12/29 04:05:13;;;;;;;;;5.00;4.67;;;;;12.99;66.57;100449.88;4999455;28;46095;-68
2021/12/29 04:07:39;;;;;;;;;5.00;4.00;;;;;12.89;66.90;100429.72;4999490;28;45508;-68
2021/12/29 04:10:07;;;;;;;;;8.33;4.00;;;;;12.84;66.70;100424.88;4999309;28;45398;-68
2021/12/29 04:12:33;;;;;;;;;4.67;4.00;;;;;12.89;66.78;100437.72;4999808;28;45463;-68
2021/12/29 04:14:58;;;;;;;;;6.00;4.67;;;;;12.55;67.08;100381.84;4999394;28;46221;-68
2021/12/29 04:17:29;;;;;;;;;5.00;5.00;;;;;12.97;67.05;100457.22;4998500;28;45532;-68
2021/12/29 04:22:39;;;;;;;;;5.67;4.00;;;;;13.01;67.05;100455.91;4999622;28;45544;-67
2021/12/29 04:25:05;;;;;;;;;5.00;3.67;;;;;12.97;67.16;100457.22;4999076;28;47026;-68
2021/12/29 04:27:31;;;;;;;;;5.00;2.67;;;;;12.89;67.88;100443.88;4999112;28;45246;-69
2021/12/29 04:29:56;;;;;;;;;3.67;3.67;;;;;12.91;67.83;100455.22;4999218;28;45512;-69
2021/12/29 04:32:22;;;;;;;;;3.00;2.00;;;;;12.95;68.20;100459.22;4999585;28;45335;-68
2021/12/29 04:34:47;;;;;;;;;2.67;2.67;;;;;12.85;67.99;100437.22;4999104;28;46426;-69
2021/12/29 04:37:13;;;;;;;;;4.00;4.00;;;;;12.95;68.19;100458.38;4998981;28;45392;-69
2021/12/29 04:39:38;;;;;;;;;5.67;3.00;;;;;12.81;68.65;100435.84;4999204;28;45334;-68
2021/12/29 04:42:04;;;;;;;;;3.67;3.00;;;;;12.88;68.92;100455.56;4999284;28;45424;-67
2021/12/29 04:44:29;;;;;;;;;3.00;3.00;;;;;12.73;69.43;100433.19;4997400;28;46285;-68
2021/12/29 04:46:57;;;;;;;;;5.00;4.00;;;;;12.84;69.93;100451.56;4991295;28;45545;-69
2021/12/29 04:49:27;;;;;;;;;7.33;3.67;;;;;12.81;70.05;100441.19;4979331;28;45310;-68
2021/12/29 04:52:03;;;;;;;;;4.00;4.00;;;;;12.79;70.42;100448.53;4979224;28;45554;-68
2021/12/29 04:54:30;;;;;;;;;4.00;3.00;;;;;12.77;70.16;100439.84;4979093;28;47552;-68
2021/12/29 04:56:55;;;;;;;;;3.33;2.00;;;;;12.78;70.61;100442.34;4979111;28;45345;-65
2021/12/29 04:59:22;;;;;;;;;6.00;4.33;;;;;12.76;70.57;100439.03;4979117;28;45447;-66
2021/12/29 05:01:48;;;;;;;;;6.00;4.00;;;;;12.68;70.43;100419.53;4979212;28;45578;-66
2021/12/29 05:04:22;;;;;;;;;4.00;2.00;;;;;12.73;70.42;100435.88;4978509;28;46476;-68
2021/12/29 05:09:32;;;;;;;;;2.67;2.67;;;;;12.65;70.78;100401.19;4978992;28;45345;-67
2021/12/29 05:12:00;;;;;;;;;2.00;2.00;;;;;12.78;70.96;100430.84;4979075;28;45384;-67
2021/12/29 05:14:25;;;;;;;;;4.00;3.00;;;;;12.39;70.65;100367.47;4978891;28;46953;-67
2021/12/29 05:16:51;;;;;;;;;2.67;1.33;;;;;12.58;71.39;100393.00;4982584;28;45460;-66
2021/12/29 05:19:16;;;;;;;;;3.00;3.00;;;;;12.75;71.14;100420.53;4998234;28;45650;-66
2021/12/29 05:21:42;;;;;;;;;4.67;2.67;;;;;12.75;71.26;100420.53;4998908;28;45509;-67
2021/12/29 05:24:08;;;;;;;;;4.33;3.33;;;;;12.36;71.71;100353.66;4998361;28;46017;-66
2021/12/29 05:26:34;;;;;;;;;4.00;3.00;;;;;12.61;71.78;100391.84;4998512;28;45254;-67
2021/12/29 05:28:59;;;;;;;;;5.33;5.33;;;;;12.73;71.68;100406.53;4997138;28;45545;-66
2021/12/29 05:31:25;;;;;;;;;4.67;4.00;;;;;12.74;72.04;100413.53;4998530;28;45330;-67
2021/12/29 05:33:51;;;;;;;;;4.00;4.00;;;;;12.74;72.04;100410.84;4996847;28;48978;-68
2021/12/29 05:36:16;;;;;;;;;4.00;4.00;;;;;12.60;72.16;100391.00;4998381;28;45473;-68
2021/12/29 05:38:42;;;;;;;;;6.67;4.67;;;;;12.69;72.53;100408.69;4997070;28;45322;-68
2021/12/29 05:41:07;;;;;;;;;8.00;4.33;;;;;12.59;72.34;100389.34;4998176;28;45511;-68
2021/12/29 05:43:33;;;;;;;;;3.00;3.00;;;;;12.67;72.65;100399.19;4997756;28;46658;-67
2021/12/29 05:45:58;;;;;;;;;5.33;4.33;;;;;12.59;73.34;100393.84;4997919;28;45317;-66
2021/12/29 05:48:23;;;;;;;;;3.67;3.67;;;;;12.64;72.95;100407.53;4980488;28;45356;-67
2021/12/29 05:50:49;;;;;;;;;4.00;4.00;;;;;12.66;73.00;100402.84;4977459;28;45565;-67
2021/12/29 05:53:14;;;;;;;;;1.67;1.67;;;;;12.56;72.74;100380.84;4978131;28;46168;-67
2021/12/29 05:55:42;;;;;;;;;3.67;3.00;;;;;12.55;72.52;100379.16;4978227;28;45211;-67
2021/12/29 05:58:09;;;;;;;;;4.00;4.00;;;;;12.68;73.02;100388.34;4976641;28;45278;-68
2021/12/29 06:00:37;;;;;;;;;4.67;4.67;;;;;12.66;72.87;100386.84;4978355;28;45352;-67
2021/12/29 06:03:02;;;;;;;;;5.67;3.33;;;;;12.56;73.05;100362.16;4983475;28;45826;-67
2021/12/29 06:05:28;;;;;;;;;6.00;4.67;;;;;12.58;72.92;100357.50;4995384;28;45266;-68
2021/12/29 06:07:53;;;;;;;;;4.33;4.33;;;;;12.66;73.14;100384.19;4997797;28;45439;-68
2021/12/29 06:10:18;;;;;;;;;6.00;4.67;;;;;12.28;72.90;100311.00;4997878;28;45497;-67
2021/12/29 06:12:44;;;;;;;;;6.00;4.00;;;;;12.60;73.15;100356.31;4997719;28;45878;-67
2021/12/29 06:15:10;;;;;;;;;3.33;3.33;;;;;12.74;73.36;100386.84;4997571;28;45385;-67
2021/12/29 06:17:35;;;;;;;;;5.67;5.67;;;;;12.77;73.27;100382.00;4996221;28;45349;-67
2021/12/29 06:20:02;;;;;;;;;6.00;5.00;;;;;12.64;73.44;100362.19;4997822;28;45270;-67
2021/12/29 06:22:27;;;;;;;;;8.00;8.00;;;;;12.69;73.13;100367.84;4997557;28;46934;-67
2021/12/29 06:24:53;;;;;;;;;11.67;11.67;;;;;12.40;73.33;100328.31;4997055;28;45283;-67
2021/12/29 06:27:23;;;;;;;;;7.33;7.33;;;;;12.40;73.82;100336.31;4997662;28;45296;-66
2021/12/29 06:29:49;;;;;;;;;7.67;7.67;;;;;12.63;73.47;100369.34;4997431;28;45245;-66
2021/12/29 06:32:15;;;;;;;;;7.00;7.00;;;;;12.70;73.58;100382.84;4997233;28;46404;-67
2021/12/29 06:34:41;;;;;;;;;5.67;5.33;;;;;12.64;73.28;100375.53;4978450;28;45552;-67
2021/12/29 06:37:12;;;;;;;;;8.67;8.33;;;;;12.62;73.64;100372.19;4977606;28;45360;-68
2021/12/29 06:39:38;;;;;;;;;9.33;8.67;;;;;12.58;73.39;100368.16;4976330;28;45370;-67
2021/12/29 06:42:04;;;;;;;;;10.33;8.00;;;;;12.62;73.73;100382.88;4977359;28;45491;-68
2021/12/29 06:44:30;;;;;;;;;10.00;9.00;;;;;12.69;73.65;100381.19;4977370;28;45514;-66
2021/12/29 06:46:56;;;;;;;;;8.00;6.67;;;;;12.58;73.56;100370.84;4977404;28;45420;-67
2021/12/29 06:49:21;;;;;;;;;8.67;7.67;;;;;12.72;73.62;100389.69;4977583;28;45539;-67
2021/12/29 06:51:48;;;;;;;;;6.00;6.00;;;;;12.73;73.45;100379.84;4977184;28;46816;-67
2021/12/29 06:54:14;;;;;;;;;4.67;4.67;;;;;12.67;73.74;100381.34;4992339;28;45387;-67
2021/12/29 06:56:39;;;;;;;;;5.33;4.00;;;;;12.74;73.79;100386.84;4977407;28;45184;-67
2021/12/29 06:59:04;;;;;;;;;5.00;5.00;;;;;12.75;73.21;100385.84;4977412;28;45507;-68
2021/12/29 07:01:30;;;;;;;;;6.00;6.00;;;;;12.71;73.52;100379.19;4977397;28;45461;-68
2021/12/29 07:03:55;;;;;;;;;5.33;5.33;;;;;12.69;73.80;100373.19;4991743;28;45269;-67
2021/12/29 07:06:21;;;;;;;;;6.67;6.67;;;;;12.64;73.39;100359.53;4996972;28;45782;-67
2021/12/29 07:08:46;;;;;;;;;4.00;4.00;;;;;12.80;73.79;100391.50;4997027;28;45274;-67
2021/12/29 07:11:11;;;;;;;;;5.33;4.00;;;;;12.78;73.68;100375.66;4996824;28;45508;-66
2021/12/29 07:13:37;;;;;;;;;7.33;6.67;;;;;12.79;73.99;100373.84;4996864;28;45754;-67
2021/12/29 07:16:02;;;;;;;;;6.00;6.00;;;;;12.86;73.17;100388.19;4996701;28;45316;-67
2021/12/29 07:18:28;;;;;;;;;5.67;5.67;;;;;12.83;73.45;100375.19;5000431;28;45531;-68
2021/12/29 07:20:53;;;;;;;;;5.00;5.00;;;;;12.79;73.75;100368.50;4999961;28;46796;-68
2021/12/29 07:23:19;;;;;;;;;4.33;4.33;;;;;12.88;73.49;100383.53;4999904;28;45498;-67
2021/12/29 07:25:44;;;;;;;;;6.00;5.00;;;;;12.47;73.53;100314.19;4998712;28;45418;-69
2021/12/29 07:28:09;;;;;;;;;10.00;9.00;;;;;12.91;73.75;100379.69;5000408;28;45273;-67
2021/12/29 07:30:35;;;;;;;;;5.00;5.00;;;;;12.91;73.61;100372.50;5000117;28;45291;-67
2021/12/29 07:33:01;;;;;;;;;5.00;5.00;;;;;12.85;73.72;100356.34;4999727;28;45569;-68
2021/12/29 07:35:27;;;;;;;;;8.67;7.67;;;;;12.97;73.65;100382.50;4999963;28;45487;-67
2021/12/29 07:37:52;;;;;;;;;7.00;5.00;;;;;12.90;74.11;100370.84;5000388;28;45574;-67
2021/12/29 07:40:17;;;;;;;;;7.00;7.00;;;;;12.91;73.69;100380.50;4999348;28;45722;-69
2021/12/29 07:42:44;;;;;;;;;7.00;7.00;;;;;12.97;74.05;100389.66;4999688;28;45498;-68
2021/12/29 07:45:10;;;;;;;;;7.33;6.33;;;;;12.98;74.12;100386.84;4999929;28;45594;-67
2021/12/29 07:47:46;;;;;;;;;5.00;5.00;;;;;13.00;73.78;100392.81;4999896;28;45481;-68
2021/12/29 07:50:11;;;;;;;;;6.33;6.00;;;;;12.61;73.52;100322.50;4999401;28;46520;-67
2021/12/29 07:52:37;;;;;;;;;6.00;6.00;;;;;13.02;73.90;100398.84;4999367;28;45334;-68
2021/12/29 07:55:04;;;;;;;;;6.67;6.67;;;;;13.00;73.78;100408.00;4999648;28;45419;-68
2021/12/29 07:57:29;;;;;;;;;13.33;13.33;;;;;13.02;73.73;100406.88;4999708;28;45265;-67
2021/12/29 07:59:55;;;;;;;;;5.00;5.00;;;;;13.06;73.81;100400.19;4999328;28;46807;-68
2021/12/29 08:02:27;;;;;;;;;4.00;4.00;;;;;12.97;73.63;100381.66;4994767;28;45233;-68
2021/12/29 08:04:52;;;;;;;;;5.00;5.00;;;;;13.00;73.84;100389.31;4979935;28;45460;-68
2021/12/29 08:07:17;;;;;;;;;9.00;6.00;;;;;13.06;73.68;100397.50;4979750;28;45417;-66
2021/12/29 08:09:43;;;;;;;;;7.67;7.67;;;;;13.03;74.06;100400.53;4979409;28;46368;-67
2021/12/29 08:12:08;;;;;;;;;8.00;8.00;;;;;13.02;74.00;100404.19;4979690;28;45284;-67
2021/12/29 08:14:34;;;;;;;;;6.67;4.67;;;;;12.47;73.94;100306.19;4979703;28;45373;-67
2021/12/29 08:17:01;;;;;;;;;8.00;7.00;;;;;12.94;74.41;100403.34;4979702;28;45233;-67
2021/12/29 08:19:26;;;;;;;;;7.67;6.33;;;;;13.00;74.73;100411.50;4979615;28;46435;-68
2021/12/29 08:21:52;;;;;;;;;5.67;5.67;;;;;12.98;74.42;100416.19;4979671;28;45416;-67
2021/12/29 08:24:17;;;;;;;;;10.67;7.00;;;;;13.12;73.94;100427.19;4979521;28;45921;-67
2021/12/29 08:26:42;;;;;;;;;9.00;9.00;;;;;13.05;74.17;100425.22;4978332;28;45437;-67
2021/12/29 08:29:08;;;;;;;;;5.00;5.00;;;;;13.13;74.19;100428.84;4977608;28;45608;-67
2021/12/29 08:31:33;;;;;;;;;9.33;8.00;;;;;13.01;74.59;100415.88;4979284;28;45434;-67
2021/12/29 08:33:59;;;;;;;;;10.67;10.67;;;;;13.01;74.68;100434.56;4979782;28;45686;-68
2021/12/29 08:36:25;;;;;;;;;11.00;11.00;;;;;13.06;74.99;100436.72;4979659;28;45289;-67
2021/12/29 08:38:50;;;;;;;;;9.67;8.67;;;;;13.13;75.00;100442.22;4993890;28;46750;-66
2021/12/29 08:41:16;;;;;;;;;9.00;9.00;;;;;13.15;75.25;100442.88;4994159;28;45964;-67
2021/12/29 08:43:41;;;;;;;;;7.33;7.33;;;;;12.84;75.00;100390.19;4979363;28;45332;-66
2021/12/29 08:46:07;;;;;;;;;8.00;8.00;;;;;12.17;75.20;100275.66;4979495;28;45341;-66
2021/12/29 08:48:33;;;;;;;;;6.67;6.67;;;;;13.17;75.04;100441.69;4978865;28;47332;-68
2021/12/29 08:51:00;;;;;;;;;11.00;8.33;;;;;13.14;75.34;100425.19;4979206;28;45343;-67
2021/12/29 08:53:26;;;;;;;;;10.67;7.00;;;;;13.12;75.31;100412.00;4979098;28;45226;-67
2021/12/29 08:55:55;;;;;;;;;8.00;7.00;;;;;12.38;75.36;100296.50;4979145;28;45514;-67
2021/12/29 08:58:22;;;;;;;;;10.00;8.00;;;;;13.18;75.41;100431.88;4993571;28;46689;-67
2021/12/29 09:00:48;;;;;;;;;9.33;8.33;;;;;13.23;75.13;100438.41;4977505;28;45436;-66
2021/12/29 09:03:13;;;;;;;;;7.33;7.33;;;;;13.28;75.47;100432.56;4989679;28;45474;-68
2021/12/29 09:05:38;;;;;;;;;11.00;10.00;;;;;12.89;75.70;100366.50;4996725;28;45619;-67
2021/12/29 09:08:04;;;;;;;;;11.33;10.00;;;;;13.31;75.30;100425.03;4998091;28;45700;-68
2021/12/29 09:10:30;;;;;;;;;9.00;9.00;;;;;13.29;75.27;100412.88;4998218;28;45614;-67
2021/12/29 09:12:55;;;;;;;;;8.67;8.00;;;;;13.38;75.60;100431.34;4998270;28;45416;-67
2021/12/29 09:15:23;;;;;;;;;8.00;5.00;;;;;13.45;75.34;100423.50;4998316;28;45382;-67
2021/12/29 09:17:48;;;;;;;;;9.00;7.00;;;;;13.36;75.44;100400.50;4997912;28;45860;-67
2021/12/29 09:20:24;;;;;;;;;7.00;7.00;;;;;13.39;75.48;100405.47;4997586;28;45295;-67
2021/12/29 09:22:51;;;;;;;;;6.33;6.00;;;;;13.15;75.48;100354.78;4997692;28;45477;-68
2021/12/29 09:25:17;;;;;;;;;4.33;4.33;;;;;13.57;75.42;100416.78;4998327;28;45434;-67
2021/12/29 09:27:47;;;;;;;;;7.00;6.00;;;;;13.49;75.54;100406.13;4997937;28;46591;-67
2021/12/29 09:30:13;;;;;;;;;9.67;7.67;;;;;13.68;75.33;100435.13;5012997;28;46627;-68
2021/12/29 09:32:38;;;;;;;;;12.67;11.00;;;;;13.19;74.98;100354.31;4990693;28;45383;-67
2021/12/29 09:35:04;;;;;;;;;7.00;7.00;;;;;13.41;75.59;100390.13;4978594;28;45534;-67
2021/12/29 09:37:30;;;;;;;;;8.33;7.33;;;;;13.60;75.48;100427.13;4993265;28;46286;-66
2021/12/29 09:39:56;;;;;;;;;7.67;7.67;;;;;13.72;75.27;100429.44;4977338;28;45452;-68
2021/12/29 09:42:22;;;;;;;;;7.67;6.00;;;;;13.73;75.37;100436.44;4978355;28;45479;-67
2021/12/29 09:44:50;;;;;;;;;8.00;8.00;;;;;13.37;75.52;100367.44;4978505;28;45350;-68
2021/12/29 09:47:16;;;;;;;;;8.67;7.00;;;;;13.35;75.69;100354.25;5007744;28;48837;-67
2021/12/29 09:49:42;;;;;;;;;8.33;7.67;;;;;13.72;75.93;100421.44;4996122;28;45593;-67
2021/12/29 09:52:08;;;;;;;;;10.67;9.33;;;;;13.79;76.17;100425.06;4995374;28;45562;-68
2021/12/29 09:54:33;;;;;;;;;6.33;5.67;;;;;13.82;76.19;100422.06;4998012;28;45400;-67
2021/12/29 09:57:00;;;;;;;;;8.67;7.00;;;;;13.67;76.21;100396.06;4996486;28;46580;-67
2021/12/29 09:59:26;;;;;;;;;6.67;6.67;;;;;13.77;76.57;100411.88;5013044;28;45348;-67
2021/12/29 10:01:52;;;;;;;;;9.00;7.00;;;;;13.59;76.35;100377.38;4997561;28;45519;-68
2021/12/29 10:04:17;;;;;;;;;7.33;7.33;;;;;13.93;76.37;100430.53;4997852;28;45389;-67
2021/12/29 10:06:43;;;;;;;;;8.00;8.00;;;;;13.96;76.26;100426.69;4996225;28;47318;-66
2021/12/29 10:09:15;;;;;;;;;8.00;8.00;;;;;13.98;76.44;100416.63;4997690;28;45437;-67
2021/12/29 10:11:53;;;;;;;;;10.00;8.33;;;;;14.02;76.44;100431.34;4997670;28;45423;-67
2021/12/29 10:14:19;;;;;;;;;8.00;6.67;;;;;14.02;76.51;100415.31;4997965;28;45420;-67
2021/12/29 10:16:47;;;;;;;;;9.33;8.67;;;;;14.04;76.55;100418.63;4997466;28;46231;-68
2021/12/29 10:19:17;;;;;;;;;12.33;10.67;;;;;14.08;76.63;100419.94;5012595;28;45475;-67
2021/12/29 10:21:46;;;;;;;;;6.67;6.33;;;;;14.11;76.74;100424.94;4991626;28;45467;-67
2021/12/29 10:24:13;;;;;;;;;5.67;5.67;;;;;14.17;76.85;100429.59;4977823;28;45439;-69
2021/12/29 10:26:43;;;;;;;;;5.67;5.67;;;;;14.18;77.08;100433.09;4977279;28;46446;-68
2021/12/29 10:29:15;;;;;;;;;7.00;6.33;;;;;14.22;76.73;100440.59;4977398;28;45556;-67
2021/12/29 10:31:56;;;;;;;;;7.00;6.33;;;;;14.12;77.26;100423.94;4992446;28;45369;-69
2021/12/29 10:34:26;;;;;;;;;6.67;6.67;;;;;14.16;77.31;100430.59;4992475;28;45339;-68
2021/12/29 10:37:11;;;;;;;;;7.67;6.33;;;;;14.24;77.42;100435.91;4992231;28;47042;-68
2021/12/29 10:39:48;;;;;;;;;7.67;5.67;;;;;14.22;77.52;100432.59;4991902;28;45686;-67
2021/12/29 10:42:18;;;;;;;;;7.33;4.67;;;;;14.34;77.53;100440.19;4977272;28;45408;-69
2021/12/29 10:44:52;;;;;;;;;5.00;5.00;;;;;14.39;77.59;100435.16;4977307;28;45634;-68
2021/12/29 10:47:31;;;;;;;;;5.67;5.67;;;;;14.36;77.66;100455.06;4976681;28;46636;-67
2021/12/29 10:50:09;;;;;;;;;8.67;7.67;;;;;14.45;77.50;100447.88;4977126;28;45327;-70
2021/12/29 10:52:39;;;;;;;;;7.00;7.00;;;;;14.46;77.59;100447.69;4992957;28;45506;-67
2021/12/29 10:55:31;;;;;;;;;8.67;7.67;;;;;14.48;77.81;100452.84;4997123;28;45492;-69
2021/12/29 10:58:06;;;;;;;;;9.33;8.33;;;;;14.57;77.63;100457.13;4996563;28;45412;-69
2021/12/29 11:00:34;;;;;;;;;4.33;4.33;;;;;14.49;77.53;100439.31;4996837;28;45351;-69
2021/12/29 11:03:13;;;;;;;;;4.00;4.00;;;;;14.59;77.90;100461.28;5011861;28;45318;-67
2021/12/29 11:05:41;;;;;;;;;3.67;3.67;;;;;14.18;77.75;100391.13;4996789;28;45396;-70
2021/12/29 11:08:10;;;;;;;;;8.00;6.00;;;;;14.36;78.21;100406.09;4996313;28;46106;-70
2021/12/29 11:10:36;;;;;;;;;5.00;5.00;;;;;14.71;78.77;100448.34;4996305;28;45526;-68
2021/12/29 11:13:02;;;;;;;;;2.33;1.67;;;;;14.69;79.21;100450.38;4994652;28;45358;-68
2021/12/29 11:15:32;;;;;;;;;1.00;1.00;;;;;14.69;79.40;100436.16;4995210;28;45494;-68
2021/12/29 11:18:04;;;;;;;;;0.67;0.67;;;;;14.79;79.45;100442.94;4996302;28;45976;-68
2021/12/29 11:20:31;;;;;;;;;0.33;0.33;;;;;14.95;79.53;100455.38;4996491;28;45618;-68
2021/12/29 11:23:13;;;;;;;;;1.67;1.67;;;;;15.01;79.79;100460.00;4996505;28;45353;-68
2021/12/29 11:25:41;;;;;;;;;0.75;0.75;;;;;15.10;79.80;100469.63;4996420;28;45435;-67
2021/12/29 11:28:20;;;;;;;;;0.00;0.00;;;;;15.11;79.30;100459.75;4996275;28;46215;-66
2021/12/29 11:30:46;;;;;;;;;0.00;0.00;;;;;15.20;79.71;100464.03;4996168;28;45466;-67